sensor_id;sensor_type;location;lat;lon;timestamp;temperature;humidity
6538;DHT22;3302;52.508;13.454;2023-06-19T00:00:18;19.50;92.50
6538;DHT22;3302;52.508;13.454;2023-06-19T00:02:43;19.50;92.50
6538;DHT22;3302;52.508;13.454;2023-06-19T00:05:10;19.50;92.70
6538;DHT22;3302;52.508;13.454;2023-06-19T00:07:39;19.40;92.80
6538;DHT22;3302;52.508;13.454;2023-06-19T00:10:05;19.40;92.80
6538;DHT22;3302;52.508;13.454;2023-06-19T00:12:32;19.40;93.00
6538;DHT22;3302;52.508;13.454;2023-06-19T00:14:58;19.40;93.10
6538;DHT22;3302;52.508;13.454;2023-06-19T00:17:24;19.40;93.10
6538;DHT22;3302;52.508;13.454;2023-06-19T00:19:52;19.40;93.10
6538;DHT22;3302;52.508;13.454;2023-06-19T00:22:18;19.30;93.30
6538;DHT22;3302;52.508;13.454;2023-06-19T00:24:44;19.40;93.20
6538;DHT22;3302;52.508;13.454;2023-06-19T00:27:10;19.30;93.40
6538;DHT22;3302;52.508;13.454;2023-06-19T00:29:36;19.30;93.40
6538;DHT22;3302;52.508;13.454;2023-06-19T00:32:02;19.30;93.60
6538;DHT22;3302;52.508;13.454;2023-06-19T00:34:29;19.30;93.90
6538;DHT22;3302;52.508;13.454;2023-06-19T00:36:55;19.30;93.70
6538;DHT22;3302;52.508;13.454;2023-06-19T00:39:24;19.20;93.70
6538;DHT22;3302;52.508;13.454;2023-06-19T00:41:54;19.10;94.10
6538;DHT22;3302;52.508;13.454;2023-06-19T00:44:21;19.20;94.10
6538;DHT22;3302;52.508;13.454;2023-06-19T00:46:47;19.30;93.90
6538;DHT22;3302;52.508;13.454;2023-06-19T00:49:16;19.30;93.80
6538;DHT22;3302;52.508;13.454;2023-06-19T00:51:42;19.20;93.80
6538;DHT22;3302;52.508;13.454;2023-06-19T00:54:08;19.10;94.20
6538;DHT22;3302;52.508;13.454;2023-06-19T00:56:36;19.00;94.40
6538;DHT22;3302;52.508;13.454;2023-06-19T00:59:06;19.00;94.60
6538;DHT22;3302;52.508;13.454;2023-06-19T01:01:33;19.00;94.50
6538;DHT22;3302;52.508;13.454;2023-06-19T01:03:59;19.00;94.70
6538;DHT22;3302;52.508;13.454;2023-06-19T01:06:30;19.10;94.60
6538;DHT22;3302;52.508;13.454;2023-06-19T01:09:08;19.00;94.70
6538;DHT22;3302;52.508;13.454;2023-06-19T01:11:47;19.10;94.70
6538;DHT22;3302;52.508;13.454;2023-06-19T01:14:44;18.90;94.90
6538;DHT22;3302;52.508;13.454;2023-06-19T01:17:12;19.00;94.90
6538;DHT22;3302;52.508;13.454;2023-06-19T01:19:38;18.90;95.10
6538;DHT22;3302;52.508;13.454;2023-06-19T01:22:05;18.80;95.30
6538;DHT22;3302;52.508;13.454;2023-06-19T01:24:30;18.80;95.50
6538;DHT22;3302;52.508;13.454;2023-06-19T01:26:56;18.80;95.40
6538;DHT22;3302;52.508;13.454;2023-06-19T01:29:22;18.80;95.40
6538;DHT22;3302;52.508;13.454;2023-06-19T01:32:13;18.70;95.50
6538;DHT22;3302;52.508;13.454;2023-06-19T01:34:41;18.80;95.40
6538;DHT22;3302;52.508;13.454;2023-06-19T01:37:08;18.60;95.60
6538;DHT22;3302;52.508;13.454;2023-06-19T01:39:35;18.60;95.60
6538;DHT22;3302;52.508;13.454;2023-06-19T01:42:03;18.70;95.60
6538;DHT22;3302;52.508;13.454;2023-06-19T01:44:29;18.60;95.90
6538;DHT22;3302;52.508;13.454;2023-06-19T01:46:55;18.60;96.00
6538;DHT22;3302;52.508;13.454;2023-06-19T01:49:21;18.60;96.00
6538;DHT22;3302;52.508;13.454;2023-06-19T01:51:47;18.70;95.70
6538;DHT22;3302;52.508;13.454;2023-06-19T01:54:12;18.70;95.60
6538;DHT22;3302;52.508;13.454;2023-06-19T01:56:38;18.80;95.30
6538;DHT22;3302;52.508;13.454;2023-06-19T01:59:04;18.70;95.60
6538;DHT22;3302;52.508;13.454;2023-06-19T02:01:30;18.60;95.70
6538;DHT22;3302;52.508;13.454;2023-06-19T02:03:56;18.60;95.60
6538;DHT22;3302;52.508;13.454;2023-06-19T02:06:21;18.60;95.80
6538;DHT22;3302;52.508;13.454;2023-06-19T02:08:48;18.60;95.80
6538;DHT22;3302;52.508;13.454;2023-06-19T02:11:14;18.60;95.70
6538;DHT22;3302;52.508;13.454;2023-06-19T02:13:40;18.60;95.80
6538;DHT22;3302;52.508;13.454;2023-06-19T02:16:06;18.50;95.90
6538;DHT22;3302;52.508;13.454;2023-06-19T02:18:31;18.50;96.00
6538;DHT22;3302;52.508;13.454;2023-06-19T02:20:58;18.50;96.00
6538;DHT22;3302;52.508;13.454;2023-06-19T02:23:24;18.50;96.20
6538;DHT22;3302;52.508;13.454;2023-06-19T02:25:50;18.50;96.10
6538;DHT22;3302;52.508;13.454;2023-06-19T02:28:15;18.50;96.10
6538;DHT22;3302;52.508;13.454;2023-06-19T02:30:41;18.60;95.90
6538;DHT22;3302;52.508;13.454;2023-06-19T02:33:07;18.70;95.60
6538;DHT22;3302;52.508;13.454;2023-06-19T02:35:33;18.60;95.90
6538;DHT22;3302;52.508;13.454;2023-06-19T02:37:59;18.60;96.00
6538;DHT22;3302;52.508;13.454;2023-06-19T02:40:25;18.50;96.20
6538;DHT22;3302;52.508;13.454;2023-06-19T02:42:50;18.50;96.40
6538;DHT22;3302;52.508;13.454;2023-06-19T02:45:16;18.40;96.50
6538;DHT22;3302;52.508;13.454;2023-06-19T02:47:42;18.50;96.40
6538;DHT22;3302;52.508;13.454;2023-06-19T02:50:08;18.60;96.30
6538;DHT22;3302;52.508;13.454;2023-06-19T02:52:34;18.60;96.30
6538;DHT22;3302;52.508;13.454;2023-06-19T02:55:00;18.50;96.30
6538;DHT22;3302;52.508;13.454;2023-06-19T02:57:25;18.50;96.30
6538;DHT22;3302;52.508;13.454;2023-06-19T02:59:51;18.60;96.20
6538;DHT22;3302;52.508;13.454;2023-06-19T03:02:17;18.50;96.20
6538;DHT22;3302;52.508;13.454;2023-06-19T03:04:43;18.50;96.20
6538;DHT22;3302;52.508;13.454;2023-06-19T03:07:09;18.50;96.20
6538;DHT22;3302;52.508;13.454;2023-06-19T03:09:36;18.50;96.20
6538;DHT22;3302;52.508;13.454;2023-06-19T03:12:02;18.40;96.30
6538;DHT22;3302;52.508;13.454;2023-06-19T03:14:28;18.40;96.10
6538;DHT22;3302;52.508;13.454;2023-06-19T03:16:54;18.50;96.00
6538;DHT22;3302;52.508;13.454;2023-06-19T03:19:20;18.50;95.80
6538;DHT22;3302;52.508;13.454;2023-06-19T03:21:46;18.50;95.60
6538;DHT22;3302;52.508;13.454;2023-06-19T03:24:11;18.50;95.70
6538;DHT22;3302;52.508;13.454;2023-06-19T03:26:37;18.50;96.20
6538;DHT22;3302;52.508;13.454;2023-06-19T03:29:03;18.40;96.00
6538;DHT22;3302;52.508;13.454;2023-06-19T03:31:29;18.50;96.00
6538;DHT22;3302;52.508;13.454;2023-06-19T03:33:54;18.40;96.00
6538;DHT22;3302;52.508;13.454;2023-06-19T03:36:21;18.40;95.90
6538;DHT22;3302;52.508;13.454;2023-06-19T03:38:48;18.50;96.00
6538;DHT22;3302;52.508;13.454;2023-06-19T03:41:13;18.50;95.80
6538;DHT22;3302;52.508;13.454;2023-06-19T03:43:39;18.50;95.70
6538;DHT22;3302;52.508;13.454;2023-06-19T03:46:05;18.50;95.90
6538;DHT22;3302;52.508;13.454;2023-06-19T03:48:31;18.60;95.70
6538;DHT22;3302;52.508;13.454;2023-06-19T03:50:57;18.60;95.70
6538;DHT22;3302;52.508;13.454;2023-06-19T03:53:22;18.60;95.40
6538;DHT22;3302;52.508;13.454;2023-06-19T03:55:48;18.60;95.30
6538;DHT22;3302;52.508;13.454;2023-06-19T03:58:14;18.70;95.20
6538;DHT22;3302;52.508;13.454;2023-06-19T04:00:39;18.80;95.00
6538;DHT22;3302;52.508;13.454;2023-06-19T04:03:06;18.70;94.90
6538;DHT22;3302;52.508;13.454;2023-06-19T04:05:34;18.70;94.90
6538;DHT22;3302;52.508;13.454;2023-06-19T04:08:00;18.70;94.90
6538;DHT22;3302;52.508;13.454;2023-06-19T04:10:26;18.80;94.70
6538;DHT22;3302;52.508;13.454;2023-06-19T04:12:53;18.90;94.80
6538;DHT22;3302;52.508;13.454;2023-06-19T04:15:21;19.00;94.90
6538;DHT22;3302;52.508;13.454;2023-06-19T04:17:47;19.00;95.00
6538;DHT22;3302;52.508;13.454;2023-06-19T04:20:13;19.00;94.60
6538;DHT22;3302;52.508;13.454;2023-06-19T04:22:40;18.90;94.50
6538;DHT22;3302;52.508;13.454;2023-06-19T04:25:10;18.90;94.60
6538;DHT22;3302;52.508;13.454;2023-06-19T04:27:36;18.80;94.40
6538;DHT22;3302;52.508;13.454;2023-06-19T04:30:03;18.70;94.60
6538;DHT22;3302;52.508;13.454;2023-06-19T04:32:30;18.80;94.70
6538;DHT22;3302;52.508;13.454;2023-06-19T04:34:55;18.90;94.70
6538;DHT22;3302;52.508;13.454;2023-06-19T04:37:23;19.00;94.40
6538;DHT22;3302;52.508;13.454;2023-06-19T04:39:48;19.00;94.50
6538;DHT22;3302;52.508;13.454;2023-06-19T04:42:16;18.80;94.60
6538;DHT22;3302;52.508;13.454;2023-06-19T04:44:49;18.80;94.80
6538;DHT22;3302;52.508;13.454;2023-06-19T04:47:21;18.70;95.00
6538;DHT22;3302;52.508;13.454;2023-06-19T04:49:47;18.80;94.90
6538;DHT22;3302;52.508;13.454;2023-06-19T04:52:13;18.80;94.70
6538;DHT22;3302;52.508;13.454;2023-06-19T04:54:39;18.80;94.80
6538;DHT22;3302;52.508;13.454;2023-06-19T04:57:05;18.80;94.90
6538;DHT22;3302;52.508;13.454;2023-06-19T04:59:32;18.80;94.90
6538;DHT22;3302;52.508;13.454;2023-06-19T05:01:59;18.90;94.80
6538;DHT22;3302;52.508;13.454;2023-06-19T05:04:25;18.90;94.70
6538;DHT22;3302;52.508;13.454;2023-06-19T05:06:51;18.90;94.80
6538;DHT22;3302;52.508;13.454;2023-06-19T05:09:17;19.10;94.60
6538;DHT22;3302;52.508;13.454;2023-06-19T05:11:43;19.10;94.90
6538;DHT22;3302;52.508;13.454;2023-06-19T05:14:09;19.10;95.10
6538;DHT22;3302;52.508;13.454;2023-06-19T05:16:35;19.10;94.90
6538;DHT22;3302;52.508;13.454;2023-06-19T05:19:00;19.30;94.50
6538;DHT22;3302;52.508;13.454;2023-06-19T05:21:26;19.30;94.30
6538;DHT22;3302;52.508;13.454;2023-06-19T05:23:52;19.30;94.90
6538;DHT22;3302;52.508;13.454;2023-06-19T05:26:19;19.30;94.80
6538;DHT22;3302;52.508;13.454;2023-06-19T05:28:46;19.30;94.80
6538;DHT22;3302;52.508;13.454;2023-06-19T05:31:12;19.30;94.70
6538;DHT22;3302;52.508;13.454;2023-06-19T05:33:38;19.30;94.70
6538;DHT22;3302;52.508;13.454;2023-06-19T05:36:04;19.30;94.80
6538;DHT22;3302;52.508;13.454;2023-06-19T05:38:30;19.20;94.60
6538;DHT22;3302;52.508;13.454;2023-06-19T05:40:57;19.30;94.70
6538;DHT22;3302;52.508;13.454;2023-06-19T05:43:23;19.30;94.70
6538;DHT22;3302;52.508;13.454;2023-06-19T05:45:50;19.30;94.60
6538;DHT22;3302;52.508;13.454;2023-06-19T05:48:16;19.30;94.70
6538;DHT22;3302;52.508;13.454;2023-06-19T05:50:42;19.20;95.00
6538;DHT22;3302;52.508;13.454;2023-06-19T05:53:09;19.30;94.90
6538;DHT22;3302;52.508;13.454;2023-06-19T05:55:35;19.20;95.10
6538;DHT22;3302;52.508;13.454;2023-06-19T05:58:04;19.20;95.10
6538;DHT22;3302;52.508;13.454;2023-06-19T06:00:31;19.20;95.20
6538;DHT22;3302;52.508;13.454;2023-06-19T06:02:57;19.10;95.30
6538;DHT22;3302;52.508;13.454;2023-06-19T06:05:26;19.10;95.30
6538;DHT22;3302;52.508;13.454;2023-06-19T06:07:53;19.20;95.50
6538;DHT22;3302;52.508;13.454;2023-06-19T06:10:20;19.20;95.40
6538;DHT22;3302;52.508;13.454;2023-06-19T06:12:47;19.30;95.40
6538;DHT22;3302;52.508;13.454;2023-06-19T06:15:13;19.30;95.00
6538;DHT22;3302;52.508;13.454;2023-06-19T06:17:39;19.40;95.00
6538;DHT22;3302;52.508;13.454;2023-06-19T06:20:05;19.50;94.80
6538;DHT22;3302;52.508;13.454;2023-06-19T06:22:40;19.50;94.90
6538;DHT22;3302;52.508;13.454;2023-06-19T06:25:07;19.50;94.60
6538;DHT22;3302;52.508;13.454;2023-06-19T06:27:33;19.60;94.60
6538;DHT22;3302;52.508;13.454;2023-06-19T06:29:59;19.70;94.70
6538;DHT22;3302;52.508;13.454;2023-06-19T06:32:26;19.70;94.30
6538;DHT22;3302;52.508;13.454;2023-06-19T06:34:52;19.80;94.00
6538;DHT22;3302;52.508;13.454;2023-06-19T06:37:18;19.70;93.90
6538;DHT22;3302;52.508;13.454;2023-06-19T06:39:48;19.70;94.00
6538;DHT22;3302;52.508;13.454;2023-06-19T06:42:15;19.70;94.00
6538;DHT22;3302;52.508;13.454;2023-06-19T06:44:41;19.70;94.10
6538;DHT22;3302;52.508;13.454;2023-06-19T06:47:07;19.70;94.00
6538;DHT22;3302;52.508;13.454;2023-06-19T06:49:33;19.70;93.90
6538;DHT22;3302;52.508;13.454;2023-06-19T06:51:59;19.80;93.90
6538;DHT22;3302;52.508;13.454;2023-06-19T06:54:24;19.70;93.70
6538;DHT22;3302;52.508;13.454;2023-06-19T06:56:50;19.80;93.90
6538;DHT22;3302;52.508;13.454;2023-06-19T06:59:18;19.80;93.90
6538;DHT22;3302;52.508;13.454;2023-06-19T07:01:44;19.80;94.00
6538;DHT22;3302;52.508;13.454;2023-06-19T07:04:09;19.80;94.00
6538;DHT22;3302;52.508;13.454;2023-06-19T07:06:35;19.80;94.10
6538;DHT22;3302;52.508;13.454;2023-06-19T07:09:02;19.80;93.90
6538;DHT22;3302;52.508;13.454;2023-06-19T07:11:28;19.80;94.00
6538;DHT22;3302;52.508;13.454;2023-06-19T07:13:53;20.00;94.00
6538;DHT22;3302;52.508;13.454;2023-06-19T07:16:19;20.20;93.50
6538;DHT22;3302;52.508;13.454;2023-06-19T07:18:45;20.10;93.60
6538;DHT22;3302;52.508;13.454;2023-06-19T07:21:14;20.10;93.80
6538;DHT22;3302;52.508;13.454;2023-06-19T07:23:41;20.20;93.70
6538;DHT22;3302;52.508;13.454;2023-06-19T07:26:08;20.20;93.60
6538;DHT22;3302;52.508;13.454;2023-06-19T07:28:34;20.20;93.50
6538;DHT22;3302;52.508;13.454;2023-06-19T07:31:02;20.30;93.30
6538;DHT22;3302;52.508;13.454;2023-06-19T07:33:28;20.40;92.90
6538;DHT22;3302;52.508;13.454;2023-06-19T07:35:56;20.50;92.70
6538;DHT22;3302;52.508;13.454;2023-06-19T07:38:22;20.60;92.60
6538;DHT22;3302;52.508;13.454;2023-06-19T07:40:47;20.60;92.20
6538;DHT22;3302;52.508;13.454;2023-06-19T07:43:13;20.70;92.10
6538;DHT22;3302;52.508;13.454;2023-06-19T07:45:39;20.70;92.00
6538;DHT22;3302;52.508;13.454;2023-06-19T07:48:05;20.80;91.90
6538;DHT22;3302;52.508;13.454;2023-06-19T07:50:30;20.80;91.70
6538;DHT22;3302;52.508;13.454;2023-06-19T07:52:57;20.90;91.60
6538;DHT22;3302;52.508;13.454;2023-06-19T07:55:23;20.90;91.70
6538;DHT22;3302;52.508;13.454;2023-06-19T07:57:49;21.00;91.60
6538;DHT22;3302;52.508;13.454;2023-06-19T08:00:16;21.00;91.50
6538;DHT22;3302;52.508;13.454;2023-06-19T08:02:42;21.20;91.70
6538;DHT22;3302;52.508;13.454;2023-06-19T08:05:09;21.30;91.30
6538;DHT22;3302;52.508;13.454;2023-06-19T08:07:35;21.30;91.20
6538;DHT22;3302;52.508;13.454;2023-06-19T08:10:01;21.40;91.00
6538;DHT22;3302;52.508;13.454;2023-06-19T08:12:30;21.30;90.70
6538;DHT22;3302;52.508;13.454;2023-06-19T08:14:56;21.40;90.40
6538;DHT22;3302;52.508;13.454;2023-06-19T08:17:21;21.40;90.30
6538;DHT22;3302;52.508;13.454;2023-06-19T08:19:49;21.50;90.30
6538;DHT22;3302;52.508;13.454;2023-06-19T08:22:15;21.50;90.30
6538;DHT22;3302;52.508;13.454;2023-06-19T08:24:40;21.60;90.30
6538;DHT22;3302;52.508;13.454;2023-06-19T08:27:07;21.70;90.50
6538;DHT22;3302;52.508;13.454;2023-06-19T08:29:33;21.80;90.90
6538;DHT22;3302;52.508;13.454;2023-06-19T08:31:59;22.00;90.20
6538;DHT22;3302;52.508;13.454;2023-06-19T08:34:25;22.00;89.60
6538;DHT22;3302;52.508;13.454;2023-06-19T08:36:51;22.00;89.20
6538;DHT22;3302;52.508;13.454;2023-06-19T08:39:17;22.00;88.10
6538;DHT22;3302;52.508;13.454;2023-06-19T08:41:43;22.00;88.40
6538;DHT22;3302;52.508;13.454;2023-06-19T08:44:09;22.10;89.00
6538;DHT22;3302;52.508;13.454;2023-06-19T08:46:35;22.10;88.40
6538;DHT22;3302;52.508;13.454;2023-06-19T08:49:04;22.10;87.80
6538;DHT22;3302;52.508;13.454;2023-06-19T08:51:31;22.10;87.60
6538;DHT22;3302;52.508;13.454;2023-06-19T08:54:03;22.20;87.40
6538;DHT22;3302;52.508;13.454;2023-06-19T08:56:30;22.20;87.70
6538;DHT22;3302;52.508;13.454;2023-06-19T08:59:17;22.40;87.80
6538;DHT22;3302;52.508;13.454;2023-06-19T09:02:01;22.40;89.10
6538;DHT22;3302;52.508;13.454;2023-06-19T09:04:28;22.50;88.50
6538;DHT22;3302;52.508;13.454;2023-06-19T09:06:56;22.60;88.10
6538;DHT22;3302;52.508;13.454;2023-06-19T09:09:23;22.60;88.30
6538;DHT22;3302;52.508;13.454;2023-06-19T09:12:06;22.70;88.00
6538;DHT22;3302;52.508;13.454;2023-06-19T09:14:39;22.80;87.80
6538;DHT22;3302;52.508;13.454;2023-06-19T09:17:11;22.80;87.70
6538;DHT22;3302;52.508;13.454;2023-06-19T09:19:38;22.80;86.40
6538;DHT22;3302;52.508;13.454;2023-06-19T09:22:07;22.80;86.60
6538;DHT22;3302;52.508;13.454;2023-06-19T09:24:40;22.90;86.60
6538;DHT22;3302;52.508;13.454;2023-06-19T09:27:11;22.90;88.00
6538;DHT22;3302;52.508;13.454;2023-06-19T09:29:43;23.00;88.10
6538;DHT22;3302;52.508;13.454;2023-06-19T09:32:26;23.00;87.30
6538;DHT22;3302;52.508;13.454;2023-06-19T09:34:56;23.00;86.90
6538;DHT22;3302;52.508;13.454;2023-06-19T09:37:28;23.00;86.50
6538;DHT22;3302;52.508;13.454;2023-06-19T09:40:02;23.00;87.00
6538;DHT22;3302;52.508;13.454;2023-06-19T09:42:40;23.00;86.80
6538;DHT22;3302;52.508;13.454;2023-06-19T09:45:13;23.00;86.90
6538;DHT22;3302;52.508;13.454;2023-06-19T09:47:47;23.00;86.80
6538;DHT22;3302;52.508;13.454;2023-06-19T09:50:17;23.00;86.60
6538;DHT22;3302;52.508;13.454;2023-06-19T09:52:43;23.10;86.50
6538;DHT22;3302;52.508;13.454;2023-06-19T09:55:11;23.20;86.60
6538;DHT22;3302;52.508;13.454;2023-06-19T09:57:41;23.30;86.60
6538;DHT22;3302;52.508;13.454;2023-06-19T10:00:09;23.30;85.30
6538;DHT22;3302;52.508;13.454;2023-06-19T10:02:37;23.30;84.50
6538;DHT22;3302;52.508;13.454;2023-06-19T10:05:04;23.10;85.00
6538;DHT22;3302;52.508;13.454;2023-06-19T10:07:35;23.20;85.40
6538;DHT22;3302;52.508;13.454;2023-06-19T10:10:03;23.30;85.50
6538;DHT22;3302;52.508;13.454;2023-06-19T10:12:43;23.40;86.40
6538;DHT22;3302;52.508;13.454;2023-06-19T10:18:06;23.50;86.30
6538;DHT22;3302;52.508;13.454;2023-06-19T10:25:40;23.90;85.40
6538;DHT22;3302;52.508;13.454;2023-06-19T10:30:57;24.00;84.10
6538;DHT22;3302;52.508;13.454;2023-06-19T10:33:25;24.00;84.10
6538;DHT22;3302;52.508;13.454;2023-06-19T10:35:51;24.10;83.90
6538;DHT22;3302;52.508;13.454;2023-06-19T10:38:17;24.00;83.10
6538;DHT22;3302;52.508;13.454;2023-06-19T10:40:44;24.00;82.20
6538;DHT22;3302;52.508;13.454;2023-06-19T10:43:11;24.00;82.80
6538;DHT22;3302;52.508;13.454;2023-06-19T10:45:37;24.00;84.70
6538;DHT22;3302;52.508;13.454;2023-06-19T10:48:04;23.80;87.10
6538;DHT22;3302;52.508;13.454;2023-06-19T10:50:34;23.80;89.50
6538;DHT22;3302;52.508;13.454;2023-06-19T10:53:07;23.80;90.50
6538;DHT22;3302;52.508;13.454;2023-06-19T10:55:33;23.90;90.30
6538;DHT22;3302;52.508;13.454;2023-06-19T10:57:58;23.90;89.10
6538;DHT22;3302;52.508;13.454;2023-06-19T11:00:28;24.00;88.20
6538;DHT22;3302;52.508;13.454;2023-06-19T11:02:55;24.10;88.70
6538;DHT22;3302;52.508;13.454;2023-06-19T11:05:22;24.30;90.00
6538;DHT22;3302;52.508;13.454;2023-06-19T11:07:58;24.40;89.00
6538;DHT22;3302;52.508;13.454;2023-06-19T11:10:27;24.40;85.40
6538;DHT22;3302;52.508;13.454;2023-06-19T11:12:54;24.60;84.00
6538;DHT22;3302;52.508;13.454;2023-06-19T11:15:36;24.70;80.80
6538;DHT22;3302;52.508;13.454;2023-06-19T11:18:02;24.90;81.70
6538;DHT22;3302;52.508;13.454;2023-06-19T11:20:29;25.00;80.70
6538;DHT22;3302;52.508;13.454;2023-06-19T11:22:59;24.80;79.10
6538;DHT22;3302;52.508;13.454;2023-06-19T11:25:36;24.60;76.90
6538;DHT22;3302;52.508;13.454;2023-06-19T11:28:03;24.50;76.30
6538;DHT22;3302;52.508;13.454;2023-06-19T11:30:31;24.50;76.20
6538;DHT22;3302;52.508;13.454;2023-06-19T11:32:57;24.60;77.10
6538;DHT22;3302;52.508;13.454;2023-06-19T11:35:23;24.70;76.60
6538;DHT22;3302;52.508;13.454;2023-06-19T11:37:49;24.60;76.90
6538;DHT22;3302;52.508;13.454;2023-06-19T11:40:16;24.70;77.60
6538;DHT22;3302;52.508;13.454;2023-06-19T11:42:49;24.70;75.40
6538;DHT22;3302;52.508;13.454;2023-06-19T11:45:16;24.80;75.20
6538;DHT22;3302;52.508;13.454;2023-06-19T11:47:46;24.80;74.90
6538;DHT22;3302;52.508;13.454;2023-06-19T11:50:13;24.80;74.70
6538;DHT22;3302;52.508;13.454;2023-06-19T11:52:39;24.80;75.10
6538;DHT22;3302;52.508;13.454;2023-06-19T11:55:06;25.00;75.00
6538;DHT22;3302;52.508;13.454;2023-06-19T11:57:31;25.00;73.60
6538;DHT22;3302;52.508;13.454;2023-06-19T11:59:58;25.00;72.70
6538;DHT22;3302;52.508;13.454;2023-06-19T12:02:24;25.20;73.30
6538;DHT22;3302;52.508;13.454;2023-06-19T12:04:50;25.40;73.40
6538;DHT22;3302;52.508;13.454;2023-06-19T12:07:16;25.60;71.60
6538;DHT22;3302;52.508;13.454;2023-06-19T12:09:41;25.60;72.40
6538;DHT22;3302;52.508;13.454;2023-06-19T12:12:09;25.60;72.00
6538;DHT22;3302;52.508;13.454;2023-06-19T12:14:35;25.90;71.80
6538;DHT22;3302;52.508;13.454;2023-06-19T12:17:01;25.80;70.30
6538;DHT22;3302;52.508;13.454;2023-06-19T12:19:27;25.90;70.00
6538;DHT22;3302;52.508;13.454;2023-06-19T12:21:55;26.10;68.10
6538;DHT22;3302;52.508;13.454;2023-06-19T12:24:21;26.00;68.90
6538;DHT22;3302;52.508;13.454;2023-06-19T12:26:47;25.90;69.60
6538;DHT22;3302;52.508;13.454;2023-06-19T12:29:13;25.80;69.80
6538;DHT22;3302;52.508;13.454;2023-06-19T12:31:38;26.00;70.20
6538;DHT22;3302;52.508;13.454;2023-06-19T12:34:04;26.20;69.30
6538;DHT22;3302;52.508;13.454;2023-06-19T12:36:33;26.30;64.40
6538;DHT22;3302;52.508;13.454;2023-06-19T12:38:59;26.30;61.90
6538;DHT22;3302;52.508;13.454;2023-06-19T12:41:26;26.20;60.30
6538;DHT22;3302;52.508;13.454;2023-06-19T12:43:51;26.30;60.00
6538;DHT22;3302;52.508;13.454;2023-06-19T12:46:17;26.30;60.40
6538;DHT22;3302;52.508;13.454;2023-06-19T12:48:43;26.30;60.80
6538;DHT22;3302;52.508;13.454;2023-06-19T12:51:09;26.30;61.20
6538;DHT22;3302;52.508;13.454;2023-06-19T12:53:35;26.30;60.70
6538;DHT22;3302;52.508;13.454;2023-06-19T12:56:00;26.40;60.70
6538;DHT22;3302;52.508;13.454;2023-06-19T12:58:26;26.50;60.30
6538;DHT22;3302;52.508;13.454;2023-06-19T13:00:53;26.80;61.00
6538;DHT22;3302;52.508;13.454;2023-06-19T13:03:21;26.70;59.50
6538;DHT22;3302;52.508;13.454;2023-06-19T13:05:47;26.80;59.60
6538;DHT22;3302;52.508;13.454;2023-06-19T13:08:12;26.70;60.50
6538;DHT22;3302;52.508;13.454;2023-06-19T13:10:39;26.70;60.20
6538;DHT22;3302;52.508;13.454;2023-06-19T13:13:06;26.80;60.60
6538;DHT22;3302;52.508;13.454;2023-06-19T13:15:32;26.90;60.70
6538;DHT22;3302;52.508;13.454;2023-06-19T13:18:00;26.80;60.30
6538;DHT22;3302;52.508;13.454;2023-06-19T13:20:27;26.90;59.80
6538;DHT22;3302;52.508;13.454;2023-06-19T13:22:53;26.90;60.60
6538;DHT22;3302;52.508;13.454;2023-06-19T13:25:19;27.00;59.30
6538;DHT22;3302;52.508;13.454;2023-06-19T13:27:46;27.10;57.70
6538;DHT22;3302;52.508;13.454;2023-06-19T13:30:14;27.20;54.80
6538;DHT22;3302;52.508;13.454;2023-06-19T13:32:39;27.30;53.80
6538;DHT22;3302;52.508;13.454;2023-06-19T13:35:06;27.40;54.30
6538;DHT22;3302;52.508;13.454;2023-06-19T13:37:36;27.50;55.00
6538;DHT22;3302;52.508;13.454;2023-06-19T13:40:02;27.50;54.80
6538;DHT22;3302;52.508;13.454;2023-06-19T13:42:30;27.30;55.50
6538;DHT22;3302;52.508;13.454;2023-06-19T13:44:56;27.30;55.40
6538;DHT22;3302;52.508;13.454;2023-06-19T13:47:22;27.50;54.60
6538;DHT22;3302;52.508;13.454;2023-06-19T13:49:51;27.50;55.00
6538;DHT22;3302;52.508;13.454;2023-06-19T13:52:17;27.50;54.50
6538;DHT22;3302;52.508;13.454;2023-06-19T13:54:43;27.70;54.90
6538;DHT22;3302;52.508;13.454;2023-06-19T13:57:09;27.80;53.70
6538;DHT22;3302;52.508;13.454;2023-06-19T13:59:34;27.90;53.60
6538;DHT22;3302;52.508;13.454;2023-06-19T14:02:00;27.80;53.70
6538;DHT22;3302;52.508;13.454;2023-06-19T14:04:26;27.70;53.90
6538;DHT22;3302;52.508;13.454;2023-06-19T14:06:52;27.70;53.70
6538;DHT22;3302;52.508;13.454;2023-06-19T14:09:17;27.80;54.20
6538;DHT22;3302;52.508;13.454;2023-06-19T14:11:43;27.90;54.60
6538;DHT22;3302;52.508;13.454;2023-06-19T14:14:09;27.90;54.40
6538;DHT22;3302;52.508;13.454;2023-06-19T14:16:35;27.90;55.00
6538;DHT22;3302;52.508;13.454;2023-06-19T14:19:01;28.00;54.70
6538;DHT22;3302;52.508;13.454;2023-06-19T14:21:26;28.00;55.20
6538;DHT22;3302;52.508;13.454;2023-06-19T14:23:52;28.00;54.00
6538;DHT22;3302;52.508;13.454;2023-06-19T14:26:18;27.90;52.70
6538;DHT22;3302;52.508;13.454;2023-06-19T14:28:44;27.90;52.30
6538;DHT22;3302;52.508;13.454;2023-06-19T14:31:10;28.10;53.40
6538;DHT22;3302;52.508;13.454;2023-06-19T14:33:35;28.00;53.40
6538;DHT22;3302;52.508;13.454;2023-06-19T14:36:03;27.90;53.90
6538;DHT22;3302;52.508;13.454;2023-06-19T14:38:29;27.70;54.40
6538;DHT22;3302;52.508;13.454;2023-06-19T14:41:02;27.80;54.90
6538;DHT22;3302;52.508;13.454;2023-06-19T14:43:28;28.00;54.60
6538;DHT22;3302;52.508;13.454;2023-06-19T14:45:54;28.00;55.20
6538;DHT22;3302;52.508;13.454;2023-06-19T14:48:20;28.10;55.40
6538;DHT22;3302;52.508;13.454;2023-06-19T14:50:46;28.00;54.50
6538;DHT22;3302;52.508;13.454;2023-06-19T14:53:12;28.00;55.20
6538;DHT22;3302;52.508;13.454;2023-06-19T14:55:38;28.30;55.50
6538;DHT22;3302;52.508;13.454;2023-06-19T14:58:08;28.40;54.80
6538;DHT22;3302;52.508;13.454;2023-06-19T15:00:34;28.50;54.80
6538;DHT22;3302;52.508;13.454;2023-06-19T15:03:04;28.60;54.50
6538;DHT22;3302;52.508;13.454;2023-06-19T15:05:30;28.80;54.30
6538;DHT22;3302;52.508;13.454;2023-06-19T15:07:56;28.90;54.40
6538;DHT22;3302;52.508;13.454;2023-06-19T15:10:21;29.00;53.90
6538;DHT22;3302;52.508;13.454;2023-06-19T15:12:47;28.80;54.60
6538;DHT22;3302;52.508;13.454;2023-06-19T15:15:13;28.70;54.20
6538;DHT22;3302;52.508;13.454;2023-06-19T15:17:39;29.00;54.30
6538;DHT22;3302;52.508;13.454;2023-06-19T15:20:05;28.60;53.20
6538;DHT22;3302;52.508;13.454;2023-06-19T15:22:31;28.60;53.60
6538;DHT22;3302;52.508;13.454;2023-06-19T15:24:57;28.50;53.80
6538;DHT22;3302;52.508;13.454;2023-06-19T15:27:22;28.60;54.40
6538;DHT22;3302;52.508;13.454;2023-06-19T15:29:48;28.70;54.30
6538;DHT22;3302;52.508;13.454;2023-06-19T15:32:14;28.50;52.80
6538;DHT22;3302;52.508;13.454;2023-06-19T15:34:40;28.40;52.70
6538;DHT22;3302;52.508;13.454;2023-06-19T15:37:06;28.40;53.00
6538;DHT22;3302;52.508;13.454;2023-06-19T15:39:32;28.50;53.10
6538;DHT22;3302;52.508;13.454;2023-06-19T15:41:58;28.50;52.80
6538;DHT22;3302;52.508;13.454;2023-06-19T15:44:23;28.60;53.80
6538;DHT22;3302;52.508;13.454;2023-06-19T15:46:49;28.40;53.90
6538;DHT22;3302;52.508;13.454;2023-06-19T15:49:15;28.20;54.40
6538;DHT22;3302;52.508;13.454;2023-06-19T15:51:43;28.20;54.60
6538;DHT22;3302;52.508;13.454;2023-06-19T15:54:08;28.10;55.10